Time;durP1;ratioP1;P1;durP2;ratioP2;P2;SDS_P1;SDS_P2;PMS_P1;PMS_P2;Temp;Humidity;BMP_temperature;BMP_pressure;BME280_temperature;BME280_humidity;BME280_pressure;Samples;Min_cycle;Max_cycle;Signal;HPM_P1;HPM_P2
2022/07/20 00:02:11;;;;;;;4.03;3.05;;;;;;;;;;5089141;28;20210;-66
2022/07/20 00:04:39;;;;;;;2.97;2.90;;;;;;;;;;5090112;28;20275;-66
2022/07/20 00:07:06;;;;;;;5.20;3.55;;;;;;;;;;5088462;28;20268;-66
2022/07/20 00:12:18;;;;;;;5.20;3.45;;;;;;;;;;5089082;28;20253;-65
2022/07/20 00:14:45;;;;;;;7.57;3.30;;;;;;;;;;5089480;28;20202;-65
2022/07/20 00:17:13;;;;;;;5.28;3.10;;;;;;;;;;5088147;28;20198;-65
2022/07/20 00:19:42;;;;;;;3.42;3.05;;;;;;;;;;5089795;28;20202;-65
2022/07/20 00:22:09;;;;;;;4.70;3.10;;;;;;;;;;5089263;28;20886;-65
2022/07/20 00:24:36;;;;;;;5.60;2.90;;;;;;;;;;5089646;28;20202;-65
2022/07/20 00:27:03;;;;;;;4.60;3.45;;;;;;;;;;5089209;28;20199;-65
2022/07/20 00:29:30;;;;;;;3.70;3.40;;;;;;;;;;5088841;28;20222;-65
2022/07/20 00:31:57;;;;;;;4.97;3.05;;;;;;;;;;5087658;28;20213;-65
2022/07/20 00:34:24;;;;;;;3.85;3.55;;;;;;;;;;5089346;28;20202;-66
2022/07/20 00:36:52;;;;;;;3.15;2.80;;;;;;;;;;5089115;28;20198;-65
2022/07/20 00:39:20;;;;;;;3.40;3.20;;;;;;;;;;5088008;28;20210;-65
2022/07/20 00:41:47;;;;;;;3.40;3.10;;;;;;;;;;5085770;28;20207;-65
2022/07/20 00:44:14;;;;;;;3.17;2.97;;;;;;;;;;5086688;28;20779;-65
2022/07/20 00:46:42;;;;;;;3.13;2.90;;;;;;;;;;5086157;28;20218;-65
2022/07/20 00:49:10;;;;;;;3.35;3.05;;;;;;;;;;5083951;28;20222;-65
2022/07/20 00:51:39;;;;;;;5.15;3.22;;;;;;;;;;5088712;28;20213;-66
2022/07/20 00:54:08;;;;;;;3.45;3.20;;;;;;;;;;5087860;28;20259;-65
2022/07/20 00:56:35;;;;;;;3.60;3.30;;;;;;;;;;5087009;28;20403;-66
2022/07/20 00:59:03;;;;;;;4.47;3.70;;;;;;;;;;5096498;28;20288;-65
2022/07/20 01:01:30;;;;;;;3.72;3.40;;;;;;;;;;5106066;28;20217;-66
2022/07/20 01:03:57;;;;;;;2.85;2.75;;;;;;;;;;5086261;28;20663;-65
2022/07/20 01:06:24;;;;;;;3.42;3.28;;;;;;;;;;5085014;28;20206;-65
2022/07/20 01:08:51;;;;;;;5.68;3.67;;;;;;;;;;5086443;28;20696;-65
2022/07/20 01:11:20;;;;;;;5.70;3.58;;;;;;;;;;5086308;28;20210;-66
2022/07/20 01:13:47;;;;;;;3.83;3.50;;;;;;;;;;5085964;28;20636;-65
2022/07/20 01:16:14;;;;;;;3.72;3.42;;;;;;;;;;5086461;28;20206;-65
2022/07/20 01:18:41;;;;;;;3.33;3.10;;;;;;;;;;5084924;28;20207;-66
2022/07/20 01:21:10;;;;;;;3.95;3.60;;;;;;;;;;5088371;28;20252;-65
2022/07/20 01:23:37;;;;;;;3.50;3.20;;;;;;;;;;5086646;28;20206;-66
2022/07/20 01:26:04;;;;;;;5.05;3.53;;;;;;;;;;5087716;28;20210;-65
2022/07/20 01:28:32;;;;;;;3.60;3.30;;;;;;;;;;5088833;28;20226;-65
2022/07/20 01:30:59;;;;;;;7.97;3.90;;;;;;;;;;5091517;28;21025;-65
2022/07/20 01:33:26;;;;;;;6.78;3.50;;;;;;;;;;5092232;28;20243;-65
2022/07/20 01:35:53;;;;;;;3.92;3.55;;;;;;;;;;5090020;28;20198;-65
2022/07/20 01:38:21;;;;;;;4.20;3.80;;;;;;;;;;5090558;28;20225;-65
2022/07/20 01:40:48;;;;;;;3.60;3.28;;;;;;;;;;5088377;28;20970;-65
2022/07/20 01:43:16;;;;;;;3.40;3.30;;;;;;;;;;5090876;28;20207;-65
2022/07/20 01:45:43;;;;;;;3.97;3.63;;;;;;;;;;5091074;28;20210;-65
2022/07/20 01:48:10;;;;;;;4.13;3.50;;;;;;;;;;5091290;28;20279;-65
2022/07/20 01:50:38;;;;;;;3.85;3.58;;;;;;;;;;5090144;28;20236;-65
2022/07/20 01:53:05;;;;;;;3.80;3.65;;;;;;;;;;5090313;28;20198;-65
2022/07/20 01:55:34;;;;;;;4.55;3.88;;;;;;;;;;5090808;28;20229;-65
2022/07/20 01:58:01;;;;;;;3.50;3.20;;;;;;;;;;5091119;28;20199;-65
2022/07/20 02:00:28;;;;;;;3.88;3.38;;;;;;;;;;5088785;28;20275;-65
2022/07/20 02:02:55;;;;;;;6.03;3.95;;;;;;;;;;5089368;28;20207;-65
2022/07/20 02:05:22;;;;;;;6.40;3.50;;;;;;;;;;5092272;28;20214;-65
2022/07/20 02:07:49;;;;;;;4.05;3.83;;;;;;;;;;5090748;28;20206;-65
2022/07/20 02:10:17;;;;;;;5.95;3.65;;;;;;;;;;5090395;28;20222;-65
2022/07/20 02:12:45;;;;;;;3.65;3.45;;;;;;;;;;5090423;28;20228;-65
2022/07/20 02:16:14;;;;;;;3.65;3.35;;;;;;;;;;5088317;28;20205;-66
2022/07/20 02:18:00;;;;;;;3.92;3.55;;;;;;;;;;5087325;28;20198;-66
2022/07/20 02:20:27;;;;;;;3.88;3.67;;;;;;;;;;5090476;28;20194;-66
2022/07/20 02:22:54;;;;;;;4.35;4.00;;;;;;;;;;5090279;28;20263;-66
2022/07/20 02:25:21;;;;;;;4.30;3.50;;;;;;;;;;5090290;28;21451;-65
2022/07/20 02:27:49;;;;;;;5.53;4.03;;;;;;;;;;5090708;28;20267;-65
2022/07/20 02:30:16;;;;;;;4.70;3.80;;;;;;;;;;5086865;28;20636;-65
2022/07/20 02:32:43;;;;;;;7.10;3.80;;;;;;;;;;5089174;28;20251;-66
2022/07/20 02:35:10;;;;;;;3.45;3.20;;;;;;;;;;5090538;28;20706;-66
2022/07/20 02:37:37;;;;;;;4.03;3.50;;;;;;;;;;5090897;28;20198;-65
2022/07/20 02:40:05;;;;;;;13.40;3.67;;;;;;;;;;5091279;28;20210;-66
2022/07/20 02:42:32;;;;;;;6.97;4.35;;;;;;;;;;5089935;28;20208;-66
2022/07/20 02:45:00;;;;;;;4.18;3.78;;;;;;;;;;5089313;28;20215;-66
2022/07/20 02:47:27;;;;;;;7.25;3.80;;;;;;;;;;5089294;28;20664;-65
2022/07/20 02:49:54;;;;;;;5.45;3.95;;;;;;;;;;5090038;28;20225;-65
2022/07/20 02:52:21;;;;;;;4.88;4.10;;;;;;;;;;5090555;28;20211;-65
2022/07/20 02:54:48;;;;;;;4.10;3.70;;;;;;;;;;5089886;28;20237;-65
2022/07/20 02:57:15;;;;;;;5.85;4.20;;;;;;;;;;5089778;28;20378;-66
2022/07/20 02:59:42;;;;;;;6.43;4.25;;;;;;;;;;5089394;28;20201;-65
2022/07/20 03:02:11;;;;;;;3.92;3.58;;;;;;;;;;5088753;28;20210;-65
2022/07/20 03:04:38;;;;;;;4.13;3.78;;;;;;;;;;5088102;28;20609;-65
2022/07/20 03:07:05;;;;;;;7.07;4.10;;;;;;;;;;5088678;28;20723;-66
2022/07/20 03:09:32;;;;;;;5.88;3.92;;;;;;;;;;5088314;28;20233;-66
2022/07/20 03:11:59;;;;;;;4.38;4.07;;;;;;;;;;5091786;28;20608;-66
2022/07/20 03:14:26;;;;;;;4.68;3.78;;;;;;;;;;5088970;28;20264;-66
2022/07/20 03:16:53;;;;;;;5.20;3.97;;;;;;;;;;5089584;28;20210;-66
2022/07/20 03:19:21;;;;;;;5.43;3.70;;;;;;;;;;5088828;28;20203;-66
2022/07/20 03:21:49;;;;;;;3.88;3.58;;;;;;;;;;5088281;28;20251;-65
2022/07/20 03:24:16;;;;;;;4.05;3.65;;;;;;;;;;5087889;28;20198;-65
2022/07/20 03:26:43;;;;;;;6.82;4.13;;;;;;;;;;5089023;28;20665;-65
2022/07/20 03:29:10;;;;;;;5.47;3.35;;;;;;;;;;5088478;28;20310;-65
2022/07/20 03:31:37;;;;;;;4.32;3.92;;;;;;;;;;5088908;28;20624;-65
2022/07/20 03:34:04;;;;;;;4.60;4.10;;;;;;;;;;5088689;28;20758;-65
2022/07/20 03:36:32;;;;;;;5.88;3.70;;;;;;;;;;5088843;28;20251;-65
2022/07/20 03:38:59;;;;;;;6.22;3.90;;;;;;;;;;5088626;28;20202;-66
2022/07/20 03:41:26;;;;;;;3.58;3.47;;;;;;;;;;5088962;28;20206;-65
2022/07/20 03:43:53;;;;;;;3.72;3.38;;;;;;;;;;5088632;28;20271;-65
2022/07/20 03:46:20;;;;;;;5.22;3.40;;;;;;;;;;5088794;28;20668;-65
2022/07/20 03:48:47;;;;;;;6.60;3.92;;;;;;;;;;5088865;28;20194;-66
2022/07/20 03:51:14;;;;;;;3.90;3.60;;;;;;;;;;5089663;28;20638;-65
2022/07/20 03:53:43;;;;;;;7.10;3.50;;;;;;;;;;5092976;28;20205;-65
2022/07/20 03:56:10;;;;;;;5.78;4.00;;;;;;;;;;5110351;28;20245;-66
2022/07/20 03:58:37;;;;;;;4.93;3.20;;;;;;;;;;5097542;28;20209;-66
2022/07/20 04:01:04;;;;;;;3.70;3.40;;;;;;;;;;5078762;28;20256;-65
2022/07/20 04:03:31;;;;;;;4.18;3.88;;;;;;;;;;5088905;28;20210;-65
2022/07/20 04:05:58;;;;;;;5.35;3.60;;;;;;;;;;5087568;28;20195;-65
2022/07/20 04:08:25;;;;;;;3.88;3.55;;;;;;;;;;5088641;28;20315;-65
2022/07/20 04:10:53;;;;;;;4.07;3.80;;;;;;;;;;5088347;28;20738;-65
2022/07/20 04:13:21;;;;;;;3.58;3.20;;;;;;;;;;5087736;28;20221;-65
2022/07/20 04:15:54;;;;;;;8.52;4.18;;;;;;;;;;5087085;28;20245;-66
2022/07/20 04:18:21;;;;;;;5.15;3.70;;;;;;;;;;5087704;28;20198;-66
2022/07/20 04:20:48;;;;;;;7.13;3.45;;;;;;;;;;5086694;28;20240;-66
2022/07/20 04:23:15;;;;;;;5.32;3.60;;;;;;;;;;5087958;28;20694;-66
2022/07/20 04:25:42;;;;;;;4.10;3.65;;;;;;;;;;5087985;28;20198;-66
2022/07/20 04:28:10;;;;;;;4.35;4.05;;;;;;;;;;5086810;28;20203;-66
2022/07/20 04:30:38;;;;;;;5.68;4.32;;;;;;;;;;5086772;28;20226;-66
2022/07/20 04:33:05;;;;;;;7.03;3.47;;;;;;;;;;5086013;28;20226;-65
2022/07/20 04:35:32;;;;;;;3.25;3.15;;;;;;;;;;5088395;28;20205;-66
2022/07/20 04:37:59;;;;;;;4.53;3.88;;;;;;;;;;5087915;28;20642;-66
2022/07/20 04:40:26;;;;;;;6.97;4.00;;;;;;;;;;5087525;28;20213;-66
2022/07/20 04:42:53;;;;;;;3.83;3.60;;;;;;;;;;5086948;28;20210;-67
2022/07/20 04:45:22;;;;;;;3.60;3.40;;;;;;;;;;5086446;28;20205;-68
2022/07/20 04:47:49;;;;;;;6.88;3.65;;;;;;;;;;5087801;28;20687;-67
2022/07/20 04:50:18;;;;;;;8.63;4.07;;;;;;;;;;5087123;28;20225;-67
2022/07/20 04:52:45;;;;;;;3.72;3.42;;;;;;;;;;5085499;28;20564;-67
2022/07/20 04:55:12;;;;;;;4.88;3.58;;;;;;;;;;5087292;28;20222;-67
2022/07/20 04:57:39;;;;;;;4.43;3.80;;;;;;;;;;5087188;28;20242;-67
2022/07/20 05:00:07;;;;;;;3.72;3.45;;;;;;;;;;5084194;28;20202;-67
2022/07/20 05:02:35;;;;;;;4.03;3.65;;;;;;;;;;5087387;28;20887;-67
2022/07/20 05:05:03;;;;;;;3.88;3.42;;;;;;;;;;5088364;28;20574;-66
2022/07/20 05:07:30;;;;;;;3.85;3.42;;;;;;;;;;5091032;28;20210;-66
2022/07/20 05:09:57;;;;;;;4.45;3.20;;;;;;;;;;5091802;28;20229;-66
2022/07/20 05:12:24;;;;;;;9.57;3.28;;;;;;;;;;5091113;28;20739;-66
2022/07/20 05:14:51;;;;;;;4.13;3.33;;;;;;;;;;5091211;28;20635;-66
2022/07/20 05:17:18;;;;;;;4.05;3.50;;;;;;;;;;5091428;28;20259;-66
2022/07/20 05:19:46;;;;;;;4.82;3.67;;;;;;;;;;5090203;28;20206;-63
2022/07/20 05:22:15;;;;;;;5.72;3.38;;;;;;;;;;5089363;28;20611;-62
2022/07/20 05:24:42;;;;;;;3.03;2.67;;;;;;;;;;5091484;28;20211;-64
2022/07/20 05:27:09;;;;;;;10.68;3.58;;;;;;;;;;5088589;28;20656;-64
2022/07/20 05:29:36;;;;;;;4.10;3.70;;;;;;;;;;5088424;28;20217;-62
2022/07/20 05:32:03;;;;;;;5.53;3.40;;;;;;;;;;5091867;28;20619;-60
2022/07/20 05:34:41;;;;;;;4.15;3.15;;;;;;;;;;5092027;28;20555;-63
2022/07/20 05:37:09;;;;;;;9.15;3.13;;;;;;;;;;5089182;28;20222;-61
2022/07/20 05:39:36;;;;;;;5.05;3.13;;;;;;;;;;5086932;28;20202;-62
2022/07/20 05:42:03;;;;;;;5.10;3.28;;;;;;;;;;5086608;28;20209;-63
2022/07/20 05:44:30;;;;;;;3.03;2.75;;;;;;;;;;5090196;28;20264;-62
2022/07/20 05:46:57;;;;;;;6.15;2.83;;;;;;;;;;5090323;28;20724;-62
2022/07/20 05:49:24;;;;;;;4.38;2.78;;;;;;;;;;5089350;28;20217;-62
2022/07/20 05:51:51;;;;;;;5.38;3.03;;;;;;;;;;5090010;28;20226;-63
2022/07/20 05:54:19;;;;;;;4.22;3.33;;;;;;;;;;5089851;28;20202;-63
2022/07/20 05:56:46;;;;;;;2.97;2.75;;;;;;;;;;5085735;28;20271;-62
2022/07/20 05:59:13;;;;;;;3.45;2.97;;;;;;;;;;5090272;28;20341;-63
2022/07/20 06:01:43;;;;;;;3.53;3.25;;;;;;;;;;5089072;28;20202;-63
2022/07/20 06:04:10;;;;;;;3.17;2.90;;;;;;;;;;5089113;28;20256;-62
2022/07/20 06:06:37;;;;;;;2.92;2.72;;;;;;;;;;5089799;28;20213;-62
2022/07/20 06:09:04;;;;;;;4.22;2.78;;;;;;;;;;5086220;28;20228;-63
2022/07/20 06:11:33;;;;;;;4.72;3.45;;;;;;;;;;5090097;28;20230;-62
2022/07/20 06:14:00;;;;;;;4.65;2.92;;;;;;;;;;5089665;28;20643;-63
2022/07/20 06:16:28;;;;;;;5.30;2.55;;;;;;;;;;5089625;28;20260;-63
2022/07/20 06:18:55;;;;;;;3.03;2.83;;;;;;;;;;5089753;28;20206;-63
2022/07/20 06:21:22;;;;;;;6.75;2.75;;;;;;;;;;5088050;28;20202;-64
2022/07/20 06:23:49;;;;;;;2.97;2.78;;;;;;;;;;5089333;28;20619;-64
2022/07/20 06:26:16;;;;;;;6.93;3.22;;;;;;;;;;5089597;28;20210;-63
2022/07/20 06:28:44;;;;;;;3.33;3.00;;;;;;;;;;5089615;28;20296;-62
2022/07/20 06:31:11;;;;;;;3.85;3.10;;;;;;;;;;5089128;28;20637;-65
2022/07/20 06:33:38;;;;;;;3.28;2.33;;;;;;;;;;5089184;28;20287;-64
2022/07/20 06:36:06;;;;;;;7.38;2.70;;;;;;;;;;5088023;28;20206;-65
2022/07/20 06:38:34;;;;;;;5.65;2.63;;;;;;;;;;5089014;28;20202;-64
2022/07/20 06:41:02;;;;;;;2.92;2.72;;;;;;;;;;5088242;28;20202;-65
2022/07/20 06:43:29;;;;;;;5.13;2.67;;;;;;;;;;5088837;28;20356;-65
2022/07/20 06:45:57;;;;;;;3.33;2.72;;;;;;;;;;5088570;28;20283;-65
2022/07/20 06:48:24;;;;;;;3.65;2.60;;;;;;;;;;5089324;28;20198;-65
2022/07/20 06:50:51;;;;;;;2.85;2.63;;;;;;;;;;5089121;28;20630;-65
2022/07/20 06:53:19;;;;;;;4.05;2.85;;;;;;;;;;5089567;28;20209;-65
2022/07/20 06:55:46;;;;;;;2.67;2.58;;;;;;;;;;5087919;28;20246;-65
2022/07/20 06:58:13;;;;;;;2.97;2.75;;;;;;;;;;5090366;28;20289;-65
2022/07/20 07:00:40;;;;;;;10.02;2.83;;;;;;;;;;5088882;28;20203;-66
2022/07/20 07:03:08;;;;;;;4.30;2.88;;;;;;;;;;5088103;28;20259;-65
2022/07/20 07:05:35;;;;;;;3.30;2.90;;;;;;;;;;5087125;28;20252;-65
2022/07/20 07:08:02;;;;;;;2.92;2.70;;;;;;;;;;5087441;28;20206;-65
2022/07/20 07:10:29;;;;;;;3.25;2.83;;;;;;;;;;5087911;28;20222;-66
2022/07/20 07:12:56;;;;;;;4.18;3.10;;;;;;;;;;5088383;28;20209;-65
2022/07/20 07:15:23;;;;;;;3.35;3.10;;;;;;;;;;5088158;28;20664;-66
2022/07/20 07:17:50;;;;;;;2.75;2.50;;;;;;;;;;5088106;28;20207;-66
2022/07/20 07:20:19;;;;;;;3.85;3.17;;;;;;;;;;5087500;28;20209;-65
2022/07/20 07:22:46;;;;;;;5.93;2.90;;;;;;;;;;5087416;28;20210;-65
2022/07/20 07:25:13;;;;;;;2.92;2.72;;;;;;;;;;5087007;28;20210;-65
2022/07/20 07:27:40;;;;;;;4.50;2.80;;;;;;;;;;5086712;28;20217;-67
2022/07/20 07:30:07;;;;;;;7.10;2.88;;;;;;;;;;5087541;28;20202;-65
2022/07/20 07:32:34;;;;;;;2.95;2.70;;;;;;;;;;5086650;28;20944;-65
2022/07/20 07:35:02;;;;;;;4.63;2.78;;;;;;;;;;5088290;28;20209;-64
2022/07/20 07:37:30;;;;;;;4.43;2.80;;;;;;;;;;5088076;28;20699;-65
2022/07/20 07:39:57;;;;;;;2.50;2.40;;;;;;;;;;5087789;28;20483;-65
2022/07/20 07:42:25;;;;;;;4.60;2.90;;;;;;;;;;5087575;28;20671;-64
2022/07/20 07:44:52;;;;;;;2.95;2.80;;;;;;;;;;5087679;28;20193;-64
2022/07/20 07:47:19;;;;;;;3.33;2.63;;;;;;;;;;5087933;28;20631;-64
2022/07/20 07:49:46;;;;;;;2.75;2.50;;;;;;;;;;5087757;28;20235;-64
2022/07/20 07:52:13;;;;;;;3.35;2.58;;;;;;;;;;5084109;28;20222;-64
2022/07/20 07:54:41;;;;;;;3.25;2.83;;;;;;;;;;5086521;28;20723;-65
2022/07/20 07:57:08;;;;;;;4.00;2.65;;;;;;;;;;5085844;28;20229;-63
2022/07/20 07:59:36;;;;;;;2.80;2.60;;;;;;;;;;5087505;28;20205;-66
2022/07/20 08:02:03;;;;;;;2.35;2.25;;;;;;;;;;5085460;28;20284;-64
2022/07/20 08:04:30;;;;;;;2.58;2.47;;;;;;;;;;5087325;28;20755;-65
2022/07/20 08:06:57;;;;;;;5.45;3.03;;;;;;;;;;5088222;28;20534;-66
2022/07/20 08:09:24;;;;;;;6.40;2.50;;;;;;;;;;5088629;28;20742;-65
2022/07/20 08:11:52;;;;;;;2.72;2.53;;;;;;;;;;5089009;28;20291;-66
2022/07/20 08:14:19;;;;;;;2.40;2.30;;;;;;;;;;5088348;28;20298;-66
2022/07/20 08:16:46;;;;;;;3.10;2.90;;;;;;;;;;5088796;28;20213;-66
2022/07/20 08:19:13;;;;;;;5.90;2.92;;;;;;;;;;5088839;28;20271;-66
2022/07/20 08:21:40;;;;;;;3.10;2.90;;;;;;;;;;5088881;28;20213;-66
2022/07/20 08:24:08;;;;;;;4.93;2.80;;;;;;;;;;5088508;28;20202;-66
2022/07/20 08:26:35;;;;;;;2.85;2.63;;;;;;;;;;5087101;28;20216;-66
2022/07/20 08:29:03;;;;;;;4.82;3.13;;;;;;;;;;5088197;28;20206;-66
2022/07/20 08:31:30;;;;;;;3.72;3.00;;;;;;;;;;5082672;28;20275;-65
2022/07/20 08:33:57;;;;;;;2.92;2.75;;;;;;;;;;5088716;28;20201;-65
2022/07/20 08:36:24;;;;;;;4.15;2.85;;;;;;;;;;5089126;28;20279;-64
2022/07/20 08:38:51;;;;;;;4.05;2.72;;;;;;;;;;5089258;28;20615;-65
2022/07/20 08:41:18;;;;;;;2.97;2.67;;;;;;;;;;5083933;28;20206;-65
2022/07/20 08:43:45;;;;;;;2.85;2.65;;;;;;;;;;5088593;28;20267;-65
2022/07/20 08:46:14;;;;;;;2.88;2.78;;;;;;;;;;5088913;28;20251;-65
2022/07/20 08:48:42;;;;;;;6.53;2.88;;;;;;;;;;5086587;28;20210;-65
2022/07/20 08:51:09;;;;;;;4.20;2.75;;;;;;;;;;5077762;28;20241;-65
2022/07/20 08:53:36;;;;;;;3.50;3.20;;;;;;;;;;5082520;28;20212;-65
2022/07/20 08:56:03;;;;;;;4.53;2.72;;;;;;;;;;5069771;28;20234;-65
2022/07/20 08:58:30;;;;;;;3.97;2.78;;;;;;;;;;5068857;28;20241;-65
2022/07/20 09:00:57;;;;;;;4.72;2.90;;;;;;;;;;5080524;28;20214;-66
2022/07/20 09:03:26;;;;;;;7.65;2.80;;;;;;;;;;5077570;28;20667;-65
2022/07/20 09:06:03;;;;;;;4.30;2.97;;;;;;;;;;5085690;28;20202;-65
2022/07/20 09:08:30;;;;;;;3.53;2.72;;;;;;;;;;5090081;28;20262;-65
2022/07/20 09:10:59;;;;;;;2.70;2.58;;;;;;;;;;5088633;28;20656;-65
2022/07/20 09:13:28;;;;;;;2.90;2.70;;;;;;;;;;5074395;28;20210;-66
2022/07/20 09:15:56;;;;;;;7.43;2.97;;;;;;;;;;5079300;28;20221;-66
2022/07/20 09:18:24;;;;;;;3.35;2.90;;;;;;;;;;5073963;28;20735;-64
2022/07/20 09:20:53;;;;;;;3.03;2.75;;;;;;;;;;5079564;28;20209;-65
2022/07/20 09:23:21;;;;;;;3.33;3.10;;;;;;;;;;5089357;28;20214;-65
2022/07/20 09:25:52;;;;;;;2.90;2.70;;;;;;;;;;5087232;28;20620;-65
2022/07/20 09:28:20;;;;;;;2.90;2.70;;;;;;;;;;5088755;28;20205;-64
2022/07/20 09:30:50;;;;;;;6.03;2.90;;;;;;;;;;5079037;28;20207;-65
2022/07/20 09:33:23;;;;;;;3.58;3.28;;;;;;;;;;5080167;28;20288;-65
2022/07/20 09:35:52;;;;;;;3.25;3.05;;;;;;;;;;5078879;28;20210;-64
2022/07/20 09:38:19;;;;;;;4.13;3.53;;;;;;;;;;5068642;28;20583;-65
2022/07/20 09:40:47;;;;;;;4.32;3.28;;;;;;;;;;5076471;28;20210;-64
2022/07/20 09:43:27;;;;;;;3.70;3.40;;;;;;;;;;5088563;28;20214;-64
2022/07/20 09:45:54;;;;;;;3.90;3.70;;;;;;;;;;5087704;28;20202;-64
2022/07/20 09:48:24;;;;;;;3.63;3.33;;;;;;;;;;5088085;28;20204;-65
2022/07/20 09:50:52;;;;;;;5.03;3.50;;;;;;;;;;5088964;28;20209;-64
2022/07/20 09:53:19;;;;;;;3.78;3.58;;;;;;;;;;5092088;28;20205;-64
2022/07/20 09:55:46;;;;;;;5.03;3.50;;;;;;;;;;5090913;28;20294;-64
2022/07/20 09:58:13;;;;;;;4.10;3.28;;;;;;;;;;5086030;28;20735;-64
2022/07/20 10:00:40;;;;;;;7.10;3.67;;;;;;;;;;5081181;28;20260;-64
2022/07/20 10:03:07;;;;;;;6.88;3.35;;;;;;;;;;5076216;28;20278;-65
2022/07/20 10:05:35;;;;;;;5.68;3.45;;;;;;;;;;5092085;28;20593;-65
2022/07/20 10:08:05;;;;;;;4.13;3.47;;;;;;;;;;5096061;28;20721;-66
2022/07/20 10:10:32;;;;;;;4.03;3.47;;;;;;;;;;5112109;28;20623;-66
2022/07/20 10:13:00;;;;;;;3.67;3.42;;;;;;;;;;5109612;28;20237;-65
2022/07/20 10:15:31;;;;;;;7.28;4.07;;;;;;;;;;5091881;28;20229;-65
2022/07/20 10:17:59;;;;;;;4.22;3.83;;;;;;;;;;5089611;28;20213;-66
2022/07/20 10:20:29;;;;;;;3.20;3.10;;;;;;;;;;5091113;28;20205;-65
2022/07/20 10:23:12;;;;;;;4.60;3.78;;;;;;;;;;5091056;28;20225;-66
2022/07/20 10:25:40;;;;;;;5.82;3.38;;;;;;;;;;5074476;28;20221;-67
2022/07/20 10:28:22;;;;;;;6.05;3.55;;;;;;;;;;5086623;28;20202;-60
2022/07/20 10:30:53;;;;;;;4.13;3.63;;;;;;;;;;5088114;28;20213;-63
2022/07/20 10:33:21;;;;;;;3.80;3.50;;;;;;;;;;5091229;28;20222;-66
2022/07/20 10:35:49;;;;;;;4.78;3.78;;;;;;;;;;5088697;28;20292;-65
2022/07/20 10:38:18;;;;;;;6.57;3.53;;;;;;;;;;5074059;28;20688;-65
2022/07/20 10:44:03;;;;;;;8.55;4.80;;;;;;;;;;5076345;28;20221;-66
2022/07/20 10:46:34;;;;;;;4.47;3.78;;;;;;;;;;5083347;28;20278;-66
2022/07/20 10:49:01;;;;;;;4.10;3.67;;;;;;;;;;5079298;28;20304;-67
2022/07/20 10:51:28;;;;;;;4.43;3.63;;;;;;;;;;5081058;28;20311;-64
2022/07/20 10:53:55;;;;;;;6.03;3.40;;;;;;;;;;5087297;28;20663;-64
2022/07/20 10:56:31;;;;;;;4.95;3.50;;;;;;;;;;5082069;28;20245;-65
2022/07/20 10:59:01;;;;;;;3.88;3.53;;;;;;;;;;5079323;28;20217;-65
2022/07/20 11:01:28;;;;;;;4.00;3.63;;;;;;;;;;5072764;28;20214;-65
2022/07/20 11:03:55;;;;;;;5.55;3.40;;;;;;;;;;5075370;28;20210;-66
2022/07/20 11:06:23;;;;;;;3.50;3.30;;;;;;;;;;5084836;28;20209;-65
2022/07/20 11:08:51;;;;;;;6.97;3.78;;;;;;;;;;5083296;28;20325;-64
2022/07/20 11:11:19;;;;;;;6.50;3.50;;;;;;;;;;5084572;28;20210;-68
2022/07/20 11:13:48;;;;;;;4.03;3.60;;;;;;;;;;5083921;28;20713;-67
2022/07/20 11:16:19;;;;;;;3.40;3.20;;;;;;;;;;5084897;28;20229;-68
2022/07/20 11:18:46;;;;;;;3.50;3.40;;;;;;;;;;5085351;28;20225;-68
2022/07/20 11:21:13;;;;;;;3.35;3.15;;;;;;;;;;5082707;28;20591;-68
2022/07/20 11:23:42;;;;;;;8.80;3.10;;;;;;;;;;5085047;28;20194;-77
2022/07/20 11:26:09;;;;;;;4.10;3.80;;;;;;;;;;5079891;28;20945;-69
2022/07/20 11:28:37;;;;;;;10.35;3.95;;;;;;;;;;5080471;28;20300;-68
2022/07/20 11:31:07;;;;;;;3.88;3.67;;;;;;;;;;5070256;28;20212;-69
2022/07/20 11:33:34;;;;;;;4.28;3.80;;;;;;;;;;5070653;28;20312;-69
2022/07/20 11:36:03;;;;;;;3.95;3.45;;;;;;;;;;5070791;28;20634;-69
2022/07/20 11:38:37;;;;;;;5.43;3.47;;;;;;;;;;5085630;28;20222;-68
2022/07/20 11:41:05;;;;;;;3.45;3.28;;;;;;;;;;5072710;28;20250;-69
2022/07/20 11:43:32;;;;;;;7.90;3.83;;;;;;;;;;5082395;28;20201;-70
2022/07/20 11:46:12;;;;;;;6.28;4.05;;;;;;;;;;5084837;28;20216;-70
2022/07/20 11:48:39;;;;;;;7.65;3.85;;;;;;;;;;5083952;28;20217;-69
2022/07/20 11:51:06;;;;;;;5.45;3.80;;;;;;;;;;5085219;28;20213;-69
2022/07/20 11:53:35;;;;;;;4.18;3.72;;;;;;;;;;5082032;28;20226;-69
2022/07/20 11:56:03;;;;;;;4.88;3.70;;;;;;;;;;5084804;28;20655;-68
2022/07/20 11:58:32;;;;;;;3.90;3.60;;;;;;;;;;5083455;28;20213;-70
2022/07/20 12:01:00;;;;;;;4.13;3.83;;;;;;;;;;5085091;28;20251;-70
2022/07/20 12:03:31;;;;;;;5.68;3.53;;;;;;;;;;5073905;28;20206;-68
2022/07/20 12:06:02;;;;;;;3.47;3.28;;;;;;;;;;5064947;28;20214;-69
2022/07/20 12:08:29;;;;;;;4.55;3.72;;;;;;;;;;5074552;28;20206;-70
2022/07/20 12:10:57;;;;;;;3.75;3.63;;;;;;;;;;5084743;28;20209;-69
2022/07/20 12:13:24;;;;;;;5.88;3.95;;;;;;;;;;5074537;28;20230;-69
2022/07/20 12:15:55;;;;;;;4.32;3.92;;;;;;;;;;5069788;28;20248;-70
2022/07/20 12:18:36;;;;;;;4.80;3.63;;;;;;;;;;5076630;28;20206;-69
2022/07/20 12:21:04;;;;;;;4.38;3.50;;;;;;;;;;5076143;28;20846;-70
2022/07/20 12:23:32;;;;;;;4.13;3.75;;;;;;;;;;5085014;28;20201;-70
2022/07/20 12:25:59;;;;;;;5.03;3.70;;;;;;;;;;5083970;28;20210;-71
2022/07/20 12:28:30;;;;;;;7.78;3.75;;;;;;;;;;5077503;28;20627;-69
2022/07/20 12:31:09;;;;;;;5.80;3.92;;;;;;;;;;5084231;28;20839;-69
2022/07/20 12:33:38;;;;;;;4.30;4.00;;;;;;;;;;5084510;28;20235;-69
2022/07/20 12:36:05;;;;;;;3.78;3.50;;;;;;;;;;5083474;28;20202;-69
2022/07/20 12:38:33;;;;;;;5.40;3.67;;;;;;;;;;5070274;28;20205;-70
2022/07/20 12:41:11;;;;;;;4.28;3.88;;;;;;;;;;5083903;28;20644;-69
2022/07/20 12:43:40;;;;;;;4.53;4.00;;;;;;;;;;5084326;28;20214;-71
2022/07/20 12:46:08;;;;;;;4.38;3.97;;;;;;;;;;5084539;28;20206;-70
2022/07/20 12:48:35;;;;;;;9.00;3.78;;;;;;;;;;5084783;28;20209;-70
2022/07/20 12:51:05;;;;;;;5.35;4.07;;;;;;;;;;5083399;28;20409;-70
2022/07/20 12:53:32;;;;;;;7.40;3.70;;;;;;;;;;5084584;28;20224;-69
2022/07/20 12:55:59;;;;;;;6.82;3.95;;;;;;;;;;5082693;28;20299;-70
2022/07/20 12:58:26;;;;;;;4.10;3.90;;;;;;;;;;5084105;28;20586;-69
2022/07/20 13:00:53;;;;;;;4.30;4.00;;;;;;;;;;5083147;28;20206;-69
2022/07/20 13:03:20;;;;;;;4.28;3.88;;;;;;;;;;5063821;28;20218;-67
2022/07/20 13:05:47;;;;;;;8.13;3.78;;;;;;;;;;5079724;28;20262;-69
2022/07/20 13:08:15;;;;;;;4.97;3.83;;;;;;;;;;5084420;28;20243;-69
2022/07/20 13:10:43;;;;;;;5.25;3.70;;;;;;;;;;5070666;28;20255;-68
2022/07/20 13:13:10;;;;;;;6.40;4.13;;;;;;;;;;5080733;28;20261;-68
2022/07/20 13:15:37;;;;;;;8.18;4.03;;;;;;;;;;5081020;28;20587;-69
2022/07/20 13:18:05;;;;;;;5.47;4.20;;;;;;;;;;5084084;28;20209;-69
2022/07/20 13:20:32;;;;;;;6.20;4.20;;;;;;;;;;5072106;28;20265;-69
2022/07/20 13:23:02;;;;;;;3.53;3.40;;;;;;;;;;5064424;28;20206;-69
2022/07/20 13:25:30;;;;;;;4.20;3.90;;;;;;;;;;5066171;28;20720;-74
2022/07/20 13:27:59;;;;;;;6.30;3.85;;;;;;;;;;5076495;28;20231;-67
2022/07/20 13:30:26;;;;;;;4.10;3.90;;;;;;;;;;5087058;28;20205;-69
2022/07/20 13:32:54;;;;;;;5.22;3.95;;;;;;;;;;5087891;28;20316;-66
2022/07/20 13:35:21;;;;;;;4.22;3.92;;;;;;;;;;5081981;28;20205;-66
2022/07/20 13:37:53;;;;;;;4.43;4.13;;;;;;;;;;5069180;28;20626;-66
2022/07/20 13:40:20;;;;;;;4.20;4.00;;;;;;;;;;5076074;28;20212;-66
2022/07/20 13:42:49;;;;;;;4.40;4.07;;;;;;;;;;5087634;28;20206;-65
2022/07/20 13:45:16;;;;;;;5.95;4.20;;;;;;;;;;5081600;28;20202;-65
2022/07/20 13:47:49;;;;;;;5.15;4.00;;;;;;;;;;5088137;28;20208;-69
2022/07/20 13:50:16;;;;;;;6.22;4.05;;;;;;;;;;5086139;28;20532;-66
2022/07/20 13:52:43;;;;;;;5.13;4.50;;;;;;;;;;5079321;28;20229;-65
2022/07/20 13:55:11;;;;;;;5.22;3.80;;;;;;;;;;5086834;28;20225;-65
2022/07/20 13:57:39;;;;;;;6.40;4.03;;;;;;;;;;5075396;28;20230;-66
2022/07/20 14:00:09;;;;;;;4.97;4.18;;;;;;;;;;5075289;28;20434;-66
2022/07/20 14:02:36;;;;;;;5.20;4.10;;;;;;;;;;5087568;28;20638;-65
2022/07/20 14:05:04;;;;;;;7.43;4.45;;;;;;;;;;5087115;28;20235;-65
2022/07/20 14:07:31;;;;;;;5.57;4.70;;;;;;;;;;5085839;28;20519;-66
2022/07/20 14:09:58;;;;;;;4.70;4.30;;;;;;;;;;5086555;28;20683;-65
2022/07/20 14:12:25;;;;;;;5.15;4.38;;;;;;;;;;5077272;28;20663;-66
2022/07/20 14:14:52;;;;;;;4.85;4.43;;;;;;;;;;5082998;28;20201;-66
2022/07/20 14:17:20;;;;;;;5.13;4.25;;;;;;;;;;5082670;28;20210;-67
2022/07/20 14:19:47;;;;;;;8.90;4.60;;;;;;;;;;5084569;28;20646;-66
2022/07/20 14:22:14;;;;;;;6.63;5.82;;;;;;;;;;5080847;28;20198;-66
2022/07/20 14:24:42;;;;;;;5.80;5.40;;;;;;;;;;5066891;28;20252;-66
2022/07/20 14:27:09;;;;;;;9.10;5.72;;;;;;;;;;5071310;28;20209;-66
2022/07/20 14:29:36;;;;;;;12.45;6.50;;;;;;;;;;5086545;28;20541;-66
2022/07/20 14:32:04;;;;;;;11.95;6.53;;;;;;;;;;5086037;28;20212;-66
2022/07/20 14:34:32;;;;;;;8.52;7.65;;;;;;;;;;5084756;28;20233;-66
2022/07/20 14:36:59;;;;;;;9.02;8.25;;;;;;;;;;5079847;28;20203;-66
2022/07/20 14:39:26;;;;;;;14.18;9.45;;;;;;;;;;5080879;28;20213;-66
2022/07/20 14:41:55;;;;;;;12.52;10.00;;;;;;;;;;5078245;28;20210;-66
2022/07/20 14:44:22;;;;;;;10.60;9.73;;;;;;;;;;5070141;28;20194;-66
2022/07/20 14:46:49;;;;;;;11.30;9.68;;;;;;;;;;5086679;28;20217;-66
2022/07/20 14:49:16;;;;;;;13.43;10.50;;;;;;;;;;5081674;28;20205;-67
2022/07/20 14:51:44;;;;;;;13.88;10.32;;;;;;;;;;5066342;28;20215;-66
2022/07/20 14:54:11;;;;;;;14.23;10.77;;;;;;;;;;5071052;28;20592;-65